createdAt,value
2022-08-11T00:03:45.088Z,15.10
2022-08-11T00:08:51.593Z,15.00
2022-08-11T00:13:55.233Z,14.90
2022-08-11T00:19:01.152Z,14.80
2022-08-11T00:24:05.572Z,14.70
2022-08-11T00:29:14.390Z,14.60
2022-08-11T00:34:22.611Z,14.50
2022-08-11T00:39:27.051Z,14.50
2022-08-11T00:44:54.011Z,14.30
2022-08-11T00:50:31.393Z,14.20
2022-08-11T00:55:55.473Z,14.10
2022-08-11T01:01:18.338Z,14.00
2022-08-11T01:06:31.472Z,13.80
2022-08-11T01:12:10.992Z,13.80
2022-08-11T01:17:43.461Z,13.70
2022-08-11T01:23:12.571Z,13.60
2022-08-11T01:28:57.761Z,13.50
2022-08-11T01:34:05.751Z,13.40
2022-08-11T01:39:18.358Z,13.40
2022-08-11T01:45:10.433Z,13.30
2022-08-11T01:50:35.170Z,13.30
2022-08-11T01:56:10.951Z,13.20
2022-08-11T02:01:39.664Z,13.10
2022-08-11T02:06:56.120Z,13.00
2022-08-11T02:12:23.872Z,13.00
2022-08-11T02:17:40.334Z,12.80
2022-08-11T02:23:11.894Z,12.70
2022-08-11T02:28:28.115Z,12.60
2022-08-11T02:33:36.605Z,12.60
2022-08-11T02:39:03.832Z,12.60
2022-08-11T02:44:20.981Z,12.50
2022-08-11T02:50:06.304Z,12.50
2022-08-11T02:55:55.780Z,12.40
2022-08-11T03:01:14.600Z,12.40
2022-08-11T03:06:37.491Z,12.30
2022-08-11T03:12:12.113Z,12.20
2022-08-11T03:17:33.231Z,12.20
2022-08-11T03:22:41.086Z,12.20
2022-08-11T03:27:58.590Z,12.20
2022-08-11T03:33:38.174Z,12.10
2022-08-11T03:39:22.511Z,12.20
2022-08-11T03:44:38.486Z,12.30
2022-08-11T03:50:17.305Z,12.40
2022-08-11T03:55:48.947Z,12.40
2022-08-11T04:01:23.122Z,12.50
2022-08-11T04:06:43.627Z,12.50
2022-08-11T04:12:05.627Z,12.50
2022-08-11T04:17:30.906Z,12.60
2022-08-11T04:23:04.066Z,12.80
2022-08-11T04:28:32.317Z,13.00
2022-08-11T04:34:27.485Z,13.10
2022-08-11T04:39:51.914Z,13.30
2022-08-11T04:45:29.088Z,13.50
2022-08-11T04:51:35.894Z,13.70
2022-08-11T04:57:02.948Z,14.00
2022-08-11T05:02:37.063Z,14.30
2022-08-11T05:08:21.885Z,14.60
2022-08-11T05:13:53.665Z,14.80
2022-08-11T05:19:17.467Z,15.10
2022-08-11T05:25:00.006Z,15.30
2022-08-11T05:30:26.605Z,15.50
2022-08-11T05:36:00.455Z,15.70
2022-08-11T05:41:25.984Z,15.80
2022-08-11T05:46:49.168Z,16.10
2022-08-11T05:52:12.947Z,16.20
2022-08-11T05:57:39.570Z,16.40
2022-08-11T06:03:01.349Z,16.70
2022-08-11T06:08:07.811Z,17.00
2022-08-11T06:13:15.468Z,17.20
2022-08-11T06:18:20.049Z,17.40
2022-08-11T06:23:25.753Z,17.70
2022-08-11T06:28:34.023Z,18.00
2022-08-11T06:34:00.655Z,18.10
2022-08-11T06:39:24.711Z,18.50
2022-08-11T06:44:40.080Z,18.80
2022-08-11T06:50:07.268Z,19.20
2022-08-11T06:55:56.138Z,19.40
2022-08-11T07:01:02.085Z,19.70
2022-08-11T07:06:51.079Z,19.80
2022-08-11T07:12:43.066Z,20.20
2022-08-11T07:18:12.308Z,20.50
2022-08-11T07:23:35.270Z,20.90
2022-08-11T07:28:59.368Z,21.30
2022-08-11T07:34:23.526Z,21.70
2022-08-11T07:39:29.130Z,22.00
2022-08-11T07:44:53.372Z,22.30
2022-08-11T07:50:14.878Z,22.50
2022-08-11T07:55:19.769Z,22.70
2022-08-11T08:00:41.204Z,22.90
2022-08-11T08:06:04.676Z,23.10
2022-08-11T08:11:40.416Z,23.20
2022-08-11T08:17:02.866Z,23.30
2022-08-11T08:22:06.266Z,23.50
2022-08-11T08:27:30.092Z,23.90
2022-08-11T08:32:39.362Z,24.40
2022-08-11T08:37:46.065Z,24.70
2022-08-11T08:42:55.569Z,24.90
2022-08-11T08:48:06.158Z,25.10
2022-08-11T08:53:11.964Z,25.30
2022-08-11T08:58:16.986Z,25.40
2022-08-11T09:03:40.921Z,25.50
2022-08-11T09:08:45.539Z,25.60
2022-08-11T09:14:05.008Z,25.90
2022-08-11T09:19:11.395Z,26.00
2022-08-11T09:24:34.172Z,26.00
2022-08-11T09:29:39.387Z,26.30
2022-08-11T09:34:42.747Z,26.30
2022-08-11T09:40:04.967Z,26.50
2022-08-11T09:45:09.056Z,26.70
2022-08-11T09:50:15.852Z,26.70
2022-08-11T09:55:19.668Z,26.80
2022-08-11T10:00:30.366Z,26.90
2022-08-11T10:05:53.726Z,27.00
2022-08-11T10:10:58.589Z,27.30
2022-08-11T10:16:15.279Z,27.40
2022-08-11T10:21:36.887Z,27.60
2022-08-11T10:26:55.037Z,27.70
2022-08-11T10:32:20.519Z,27.20
2022-08-11T10:38:06.630Z,26.60
2022-08-11T10:43:03.527Z,26.30
2022-08-11T10:48:10.980Z,26.60
2022-08-11T10:53:38.009Z,27.20
2022-08-11T10:58:48.086Z,27.50
2022-08-11T11:04:05.147Z,27.50
2022-08-11T11:09:16.149Z,27.90
2022-08-11T11:14:46.094Z,28.10
2022-08-11T11:19:56.767Z,28.10
2022-08-11T11:25:23.745Z,28.20
2022-08-11T11:30:53.087Z,27.80
2022-08-11T11:36:37.970Z,27.40
2022-08-11T11:41:42.974Z,27.50
2022-08-11T11:46:47.303Z,27.30
2022-08-11T11:51:55.505Z,26.80
2022-08-11T11:57:19.747Z,27.10
2022-08-11T12:02:23.403Z,27.50
2022-08-11T12:07:46.042Z,27.60
2022-08-11T12:13:21.131Z,27.60
2022-08-11T12:18:24.846Z,27.80
2022-08-11T12:23:47.251Z,28.00
2022-08-11T12:28:52.021Z,28.00
2022-08-11T12:34:15.127Z,28.40
2022-08-11T12:40:11.043Z,28.70
2022-08-11T12:45:32.166Z,28.70
2022-08-11T12:50:55.764Z,28.30
2022-08-11T12:56:24.106Z,27.80
2022-08-11T13:01:45.887Z,27.70
2022-08-11T13:06:52.023Z,27.90
2022-08-11T13:12:14.227Z,28.30
2022-08-11T13:17:43.450Z,28.40
2022-08-11T13:22:50.866Z,28.50
2022-08-11T13:27:57.299Z,28.80
2022-08-11T13:33:08.428Z,29.30
2022-08-11T13:38:19.782Z,29.20
2022-08-11T13:43:24.692Z,29.30
2022-08-11T13:48:28.869Z,29.10
2022-08-11T13:53:33.407Z,29.30
2022-08-11T13:58:39.910Z,29.80
2022-08-11T14:04:31.245Z,29.90
2022-08-11T14:09:10.827Z,29.70
2022-08-11T14:14:24.447Z,29.40
2022-08-11T14:19:29.107Z,29.40
2022-08-11T14:24:33.167Z,28.40
2022-08-11T14:29:45.175Z,27.80
2022-08-11T14:34:52.641Z,28.30
2022-08-11T14:40:03.269Z,28.90
2022-08-11T14:45:58.206Z,29.30
2022-08-11T14:50:53.826Z,29.70
2022-08-11T14:56:16.167Z,29.70
2022-08-11T15:01:38.326Z,30.00
2022-08-11T15:06:41.482Z,29.90
2022-08-11T15:12:03.684Z,30.10
2022-08-11T15:17:10.626Z,30.50
2022-08-11T15:22:49.441Z,31.10
2022-08-11T15:28:13.925Z,30.50
2022-08-11T15:33:37.286Z,29.30
2022-08-11T15:38:44.950Z,29.10
2022-08-11T15:44:13.282Z,29.30
2022-08-11T15:49:24.367Z,29.50
2022-08-11T15:54:48.968Z,29.50
2022-08-11T16:00:10.520Z,29.20
2022-08-11T16:05:45.265Z,29.10
2022-08-11T16:10:39.994Z,28.70
2022-08-11T16:16:17.910Z,28.60
2022-08-11T16:21:35.131Z,28.60
2022-08-11T16:27:08.779Z,28.30
2022-08-11T16:32:18.025Z,28.20
2022-08-11T16:37:42.507Z,28.20
2022-08-11T16:43:10.870Z,28.40
2022-08-11T16:48:35.022Z,28.30
2022-08-11T16:54:00.131Z,28.50
2022-08-11T16:59:16.602Z,28.60
2022-08-11T17:04:57.307Z,28.30
2022-08-11T17:10:39.020Z,27.90
2022-08-11T17:16:07.380Z,27.60
2022-08-11T17:21:19.305Z,27.40
2022-08-11T17:26:25.767Z,27.30
2022-08-11T17:31:48.927Z,27.40
2022-08-11T17:36:57.233Z,27.20
2022-08-11T17:42:20.848Z,27.10
2022-08-11T17:47:43.366Z,27.10
2022-08-11T17:53:06.176Z,26.70
2022-08-11T17:58:28.185Z,26.20
2022-08-11T18:03:40.178Z,25.60
2022-08-11T18:09:04.226Z,25.10
2022-08-11T18:14:28.185Z,24.60
2022-08-11T18:19:49.994Z,24.20
2022-08-11T18:25:16.438Z,23.90
2022-08-11T18:30:38.585Z,23.40
2022-08-11T18:36:01.529Z,23.10
2022-08-11T18:41:25.585Z,22.80
2022-08-11T18:46:52.207Z,22.60
2022-08-11T18:52:16.452Z,22.20
2022-08-11T18:57:49.479Z,21.90
2022-08-11T19:03:17.906Z,21.60
2022-08-11T19:08:41.266Z,21.30
2022-08-11T19:14:04.687Z,21.10
2022-08-11T19:19:28.407Z,21.00
2022-08-11T19:24:51.178Z,20.90
2022-08-11T19:30:14.403Z,20.50
2022-08-11T19:35:38.527Z,20.10
2022-08-11T19:41:02.368Z,20.00
2022-08-11T19:46:26.227Z,20.10
2022-08-11T19:51:53.451Z,20.10
2022-08-11T19:57:17.533Z,20.00
2022-08-11T20:02:39.981Z,20.00
2022-08-11T20:08:03.351Z,19.80
2022-08-11T20:13:29.267Z,19.80
2022-08-11T20:18:53.130Z,19.70
2022-08-11T20:24:15.702Z,19.60
2022-08-11T20:29:44.629Z,19.50
2022-08-11T20:35:06.359Z,19.40
2022-08-11T20:40:29.332Z,19.20
2022-08-11T20:45:55.253Z,19.10
2022-08-11T20:51:20.732Z,19.10
2022-08-11T20:56:50.329Z,19.00
2022-08-11T21:02:14.518Z,18.90
2022-08-11T21:07:39.434Z,18.80
2022-08-11T21:13:18.018Z,18.80
2022-08-11T21:18:48.429Z,18.60
2022-08-11T21:24:12.467Z,18.50
2022-08-11T21:29:38.595Z,18.40
2022-08-11T21:35:02.249Z,18.40
2022-08-11T21:40:26.465Z,18.30
2022-08-11T21:45:49.610Z,18.20
2022-08-11T21:51:11.771Z,18.10
2022-08-11T21:56:35.107Z,18.00
2022-08-11T22:01:57.185Z,17.90
2022-08-11T22:07:20.407Z,17.80
2022-08-11T22:12:45.012Z,17.70
2022-08-11T22:18:07.169Z,17.50
2022-08-11T22:23:35.881Z,17.40
2022-08-11T22:28:58.310Z,17.30
2022-08-11T22:34:21.631Z,17.30
2022-08-11T22:39:46.064Z,17.20
2022-08-11T22:45:24.167Z,17.00
2022-08-11T22:50:47.848Z,16.90
2022-08-11T22:56:10.407Z,16.80
2022-08-11T23:01:37.987Z,16.70
2022-08-11T23:07:49.853Z,16.60
2022-08-11T23:13:01.749Z,16.50
2022-08-11T23:18:25.148Z,16.50
2022-08-11T23:23:48.627Z,16.40
2022-08-11T23:29:12.328Z,16.40
2022-08-11T23:35:39.592Z,16.30
2022-08-11T23:40:51.596Z,16.20
2022-08-11T23:46:13.507Z,16.20
2022-08-11T23:51:41.160Z,16.20
2022-08-11T23:57:04.315Z,16.10
